sensor_id;sensor_type;location;lat;lon;timestamp;P1;durP1;ratioP1;P2;durP2;ratioP2
76852;SDS011;65825;52.232;10.566;2023-01-09T00:00:38;4.60;;;2.10;;
76852;SDS011;65825;52.232;10.566;2023-01-09T00:03:03;4.32;;;2.25;;
76852;SDS011;65825;52.232;10.566;2023-01-09T00:05:29;4.80;;;2.33;;
76852;SDS011;65825;52.232;10.566;2023-01-09T00:07:54;4.43;;;2.27;;
76852;SDS011;65825;52.232;10.566;2023-01-09T00:10:19;3.10;;;2.00;;
76852;SDS011;65825;52.232;10.566;2023-01-09T00:12:44;4.75;;;2.17;;
76852;SDS011;65825;52.232;10.566;2023-01-09T00:15:10;3.17;;;1.90;;
76852;SDS011;65825;52.232;10.566;2023-01-09T00:17:35;2.88;;;2.05;;
76852;SDS011;65825;52.232;10.566;2023-01-09T00:20:00;4.17;;;2.20;;
76852;SDS011;65825;52.232;10.566;2023-01-09T00:22:26;4.70;;;2.30;;
76852;SDS011;65825;52.232;10.566;2023-01-09T00:24:51;4.77;;;2.50;;
76852;SDS011;65825;52.232;10.566;2023-01-09T00:27:16;5.00;;;2.10;;
76852;SDS011;65825;52.232;10.566;2023-01-09T00:29:42;5.03;;;2.40;;
76852;SDS011;65825;52.232;10.566;2023-01-09T00:32:09;5.00;;;2.10;;
76852;SDS011;65825;52.232;10.566;2023-01-09T00:34:36;3.88;;;2.17;;
76852;SDS011;65825;52.232;10.566;2023-01-09T00:37:02;5.47;;;2.40;;
76852;SDS011;65825;52.232;10.566;2023-01-09T00:39:28;4.07;;;2.53;;
76852;SDS011;65825;52.232;10.566;2023-01-09T00:41:54;3.60;;;2.30;;
76852;SDS011;65825;52.232;10.566;2023-01-09T00:44:25;4.70;;;2.45;;
76852;SDS011;65825;52.232;10.566;2023-01-09T00:47:00;4.15;;;2.50;;
76852;SDS011;65825;52.232;10.566;2023-01-09T00:49:30;4.75;;;2.47;;
76852;SDS011;65825;52.232;10.566;2023-01-09T00:51:58;4.03;;;2.60;;
76852;SDS011;65825;52.232;10.566;2023-01-09T00:54:24;4.32;;;2.65;;
76852;SDS011;65825;52.232;10.566;2023-01-09T00:56:50;5.05;;;2.47;;
76852;SDS011;65825;52.232;10.566;2023-01-09T00:59:15;6.30;;;2.88;;
76852;SDS011;65825;52.232;10.566;2023-01-09T01:01:40;4.03;;;2.58;;
76852;SDS011;65825;52.232;10.566;2023-01-09T01:04:06;3.72;;;2.40;;
76852;SDS011;65825;52.232;10.566;2023-01-09T01:06:49;5.97;;;2.42;;
76852;SDS011;65825;52.232;10.566;2023-01-09T01:09:33;5.10;;;2.40;;
76852;SDS011;65825;52.232;10.566;2023-01-09T01:11:59;4.30;;;2.50;;
76852;SDS011;65825;52.232;10.566;2023-01-09T01:14:25;4.72;;;2.47;;
76852;SDS011;65825;52.232;10.566;2023-01-09T01:16:51;5.60;;;2.75;;
76852;SDS011;65825;52.232;10.566;2023-01-09T01:19:16;3.90;;;2.27;;
76852;SDS011;65825;52.232;10.566;2023-01-09T01:21:41;4.50;;;2.30;;
76852;SDS011;65825;52.232;10.566;2023-01-09T01:24:07;4.73;;;2.43;;
76852;SDS011;65825;52.232;10.566;2023-01-09T01:26:32;3.60;;;2.27;;
76852;SDS011;65825;52.232;10.566;2023-01-09T01:28:57;3.23;;;2.23;;
76852;SDS011;65825;52.232;10.566;2023-01-09T01:31:23;7.03;;;2.50;;
76852;SDS011;65825;52.232;10.566;2023-01-09T01:33:48;4.77;;;2.67;;
76852;SDS011;65825;52.232;10.566;2023-01-09T01:36:13;4.37;;;2.43;;
76852;SDS011;65825;52.232;10.566;2023-01-09T01:38:41;4.63;;;2.83;;
76852;SDS011;65825;52.232;10.566;2023-01-09T01:41:07;5.22;;;2.53;;
76852;SDS011;65825;52.232;10.566;2023-01-09T01:43:48;6.83;;;2.37;;
76852;SDS011;65825;52.232;10.566;2023-01-09T01:46:16;4.18;;;2.58;;
76852;SDS011;65825;52.232;10.566;2023-01-09T01:48:41;4.93;;;2.38;;
76852;SDS011;65825;52.232;10.566;2023-01-09T01:51:08;3.95;;;2.40;;
76852;SDS011;65825;52.232;10.566;2023-01-09T01:53:36;4.22;;;2.65;;
76852;SDS011;65825;52.232;10.566;2023-01-09T01:56:09;4.47;;;2.50;;
76852;SDS011;65825;52.232;10.566;2023-01-09T02:01:49;4.65;;;2.63;;
76852;SDS011;65825;52.232;10.566;2023-01-09T02:04:16;5.22;;;2.38;;
76852;SDS011;65825;52.232;10.566;2023-01-09T02:06:41;4.32;;;2.55;;
76852;SDS011;65825;52.232;10.566;2023-01-09T02:09:08;5.18;;;2.90;;
76852;SDS011;65825;52.232;10.566;2023-01-09T02:11:42;6.55;;;2.45;;
76852;SDS011;65825;52.232;10.566;2023-01-09T02:14:09;3.72;;;2.33;;
76852;SDS011;65825;52.232;10.566;2023-01-09T02:22:18;4.63;;;2.67;;
76852;SDS011;65825;52.232;10.566;2023-01-09T02:25:22;5.70;;;2.85;;
76852;SDS011;65825;52.232;10.566;2023-01-09T02:28:08;5.32;;;2.70;;
76852;SDS011;65825;52.232;10.566;2023-01-09T02:31:00;5.70;;;3.10;;
76852;SDS011;65825;52.232;10.566;2023-01-09T02:39:06;4.45;;;2.80;;
76852;SDS011;65825;52.232;10.566;2023-01-09T02:42:06;4.22;;;2.90;;
76852;SDS011;65825;52.232;10.566;2023-01-09T02:44:37;3.85;;;2.67;;
76852;SDS011;65825;52.232;10.566;2023-01-09T02:49:34;4.70;;;3.03;;
76852;SDS011;65825;52.232;10.566;2023-01-09T02:57:39;6.07;;;2.83;;
76852;SDS011;65825;52.232;10.566;2023-01-09T03:06:05;5.03;;;2.88;;
76852;SDS011;65825;52.232;10.566;2023-01-09T03:09:00;5.55;;;3.28;;
76852;SDS011;65825;52.232;10.566;2023-01-09T03:11:31;6.60;;;3.50;;
76852;SDS011;65825;52.232;10.566;2023-01-09T03:14:05;5.85;;;3.33;;
76852;SDS011;65825;52.232;10.566;2023-01-09T03:16:36;7.10;;;3.30;;
76852;SDS011;65825;52.232;10.566;2023-01-09T03:19:03;7.32;;;3.17;;
76852;SDS011;65825;52.232;10.566;2023-01-09T03:21:32;6.47;;;3.50;;
76852;SDS011;65825;52.232;10.566;2023-01-09T03:24:00;5.57;;;3.22;;
76852;SDS011;65825;52.232;10.566;2023-01-09T03:26:26;5.70;;;3.30;;
76852;SDS011;65825;52.232;10.566;2023-01-09T03:28:56;6.47;;;3.10;;
76852;SDS011;65825;52.232;10.566;2023-01-09T03:31:22;5.57;;;3.05;;
76852;SDS011;65825;52.232;10.566;2023-01-09T03:33:47;6.43;;;3.35;;
76852;SDS011;65825;52.232;10.566;2023-01-09T03:36:13;6.33;;;3.63;;
76852;SDS011;65825;52.232;10.566;2023-01-09T03:38:40;6.18;;;3.05;;
76852;SDS011;65825;52.232;10.566;2023-01-09T03:41:05;7.43;;;3.25;;
76852;SDS011;65825;52.232;10.566;2023-01-09T03:43:31;5.95;;;3.65;;
76852;SDS011;65825;52.232;10.566;2023-01-09T03:45:57;7.00;;;3.60;;
76852;SDS011;65825;52.232;10.566;2023-01-09T03:48:23;6.13;;;3.28;;
76852;SDS011;65825;52.232;10.566;2023-01-09T03:50:49;5.75;;;3.80;;
76852;SDS011;65825;52.232;10.566;2023-01-09T03:53:15;5.75;;;3.22;;
76852;SDS011;65825;52.232;10.566;2023-01-09T03:55:44;5.82;;;3.65;;
76852;SDS011;65825;52.232;10.566;2023-01-09T03:58:11;10.45;;;4.03;;
76852;SDS011;65825;52.232;10.566;2023-01-09T04:00:36;7.07;;;3.75;;
76852;SDS011;65825;52.232;10.566;2023-01-09T04:05:28;7.07;;;3.30;;
76852;SDS011;65825;52.232;10.566;2023-01-09T04:07:53;5.93;;;3.20;;
76852;SDS011;65825;52.232;10.566;2023-01-09T04:10:18;6.33;;;3.70;;
76852;SDS011;65825;52.232;10.566;2023-01-09T04:12:44;7.03;;;3.47;;
76852;SDS011;65825;52.232;10.566;2023-01-09T04:15:09;5.50;;;3.10;;
76852;SDS011;65825;52.232;10.566;2023-01-09T04:17:35;6.53;;;3.40;;
76852;SDS011;65825;52.232;10.566;2023-01-09T04:20:00;7.40;;;3.67;;
76852;SDS011;65825;52.232;10.566;2023-01-09T04:22:25;4.93;;;3.33;;
76852;SDS011;65825;52.232;10.566;2023-01-09T04:24:50;6.97;;;3.70;;
76852;SDS011;65825;52.232;10.566;2023-01-09T04:27:16;6.80;;;3.80;;
76852;SDS011;65825;52.232;10.566;2023-01-09T04:29:41;7.30;;;3.77;;
76852;SDS011;65825;52.232;10.566;2023-01-09T04:32:06;6.37;;;3.30;;
76852;SDS011;65825;52.232;10.566;2023-01-09T04:34:31;5.50;;;3.57;;
76852;SDS011;65825;52.232;10.566;2023-01-09T04:36:57;7.23;;;3.60;;
76852;SDS011;65825;52.232;10.566;2023-01-09T04:39:22;5.63;;;3.60;;
76852;SDS011;65825;52.232;10.566;2023-01-09T04:41:47;7.75;;;3.80;;
76852;SDS011;65825;52.232;10.566;2023-01-09T04:44:13;7.00;;;3.57;;
76852;SDS011;65825;52.232;10.566;2023-01-09T04:46:39;5.45;;;3.35;;
76852;SDS011;65825;52.232;10.566;2023-01-09T04:49:04;7.25;;;4.00;;
76852;SDS011;65825;52.232;10.566;2023-01-09T04:51:29;7.05;;;3.83;;
76852;SDS011;65825;52.232;10.566;2023-01-09T04:53:55;6.22;;;3.65;;
76852;SDS011;65825;52.232;10.566;2023-01-09T04:56:20;8.55;;;3.40;;
76852;SDS011;65825;52.232;10.566;2023-01-09T04:58:45;5.80;;;3.50;;
76852;SDS011;65825;52.232;10.566;2023-01-09T05:01:10;6.10;;;3.60;;
76852;SDS011;65825;52.232;10.566;2023-01-09T05:03:36;6.40;;;4.18;;
76852;SDS011;65825;52.232;10.566;2023-01-09T05:06:01;8.33;;;4.10;;
76852;SDS011;65825;52.232;10.566;2023-01-09T05:08:26;5.50;;;3.53;;
76852;SDS011;65825;52.232;10.566;2023-01-09T05:10:51;9.57;;;4.33;;
76852;SDS011;65825;52.232;10.566;2023-01-09T05:13:17;7.17;;;3.57;;
76852;SDS011;65825;52.232;10.566;2023-01-09T05:15:42;6.80;;;3.70;;
76852;SDS011;65825;52.232;10.566;2023-01-09T05:18:07;6.80;;;3.90;;
76852;SDS011;65825;52.232;10.566;2023-01-09T05:20:33;7.43;;;4.43;;
76852;SDS011;65825;52.232;10.566;2023-01-09T05:22:58;6.78;;;3.97;;
76852;SDS011;65825;52.232;10.566;2023-01-09T05:25:23;7.43;;;4.20;;
76852;SDS011;65825;52.232;10.566;2023-01-09T05:27:48;6.75;;;4.20;;
76852;SDS011;65825;52.232;10.566;2023-01-09T05:30:14;6.57;;;4.13;;
76852;SDS011;65825;52.232;10.566;2023-01-09T05:32:39;8.60;;;4.55;;
76852;SDS011;65825;52.232;10.566;2023-01-09T05:35:04;7.10;;;4.20;;
76852;SDS011;65825;52.232;10.566;2023-01-09T05:37:30;6.72;;;4.10;;
76852;SDS011;65825;52.232;10.566;2023-01-09T05:39:55;6.20;;;3.67;;
76852;SDS011;65825;52.232;10.566;2023-01-09T05:42:21;10.00;;;4.67;;
76852;SDS011;65825;52.232;10.566;2023-01-09T05:44:46;7.97;;;4.27;;
76852;SDS011;65825;52.232;10.566;2023-01-09T05:47:11;6.43;;;3.93;;
76852;SDS011;65825;52.232;10.566;2023-01-09T05:49:37;8.35;;;4.55;;
76852;SDS011;65825;52.232;10.566;2023-01-09T05:52:02;5.93;;;3.88;;
76852;SDS011;65825;52.232;10.566;2023-01-09T05:54:28;6.47;;;3.90;;
76852;SDS011;65825;52.232;10.566;2023-01-09T05:56:54;6.35;;;3.60;;
76852;SDS011;65825;52.232;10.566;2023-01-09T05:59:19;4.77;;;3.00;;
76852;SDS011;65825;52.232;10.566;2023-01-09T06:01:47;4.95;;;2.85;;
76852;SDS011;65825;52.232;10.566;2023-01-09T06:04:12;5.87;;;3.50;;
76852;SDS011;65825;52.232;10.566;2023-01-09T06:06:37;6.18;;;2.83;;
76852;SDS011;65825;52.232;10.566;2023-01-09T06:09:04;4.28;;;2.20;;
76852;SDS011;65825;52.232;10.566;2023-01-09T06:11:29;3.33;;;1.75;;
76852;SDS011;65825;52.232;10.566;2023-01-09T06:13:54;3.67;;;1.97;;
76852;SDS011;65825;52.232;10.566;2023-01-09T06:16:19;4.00;;;2.00;;
76852;SDS011;65825;52.232;10.566;2023-01-09T06:18:45;3.50;;;2.20;;
76852;SDS011;65825;52.232;10.566;2023-01-09T06:21:10;4.60;;;1.90;;
76852;SDS011;65825;52.232;10.566;2023-01-09T06:23:35;6.33;;;2.10;;
76852;SDS011;65825;52.232;10.566;2023-01-09T06:26:00;3.15;;;1.90;;
76852;SDS011;65825;52.232;10.566;2023-01-09T06:28:26;3.70;;;2.07;;
76852;SDS011;65825;52.232;10.566;2023-01-09T06:30:51;3.87;;;2.00;;
76852;SDS011;65825;52.232;10.566;2023-01-09T06:33:17;4.45;;;2.15;;
76852;SDS011;65825;52.232;10.566;2023-01-09T06:35:42;2.70;;;1.90;;
76852;SDS011;65825;52.232;10.566;2023-01-09T06:38:07;4.03;;;2.60;;
76852;SDS011;65825;52.232;10.566;2023-01-09T06:40:33;5.73;;;2.97;;
76852;SDS011;65825;52.232;10.566;2023-01-09T06:42:58;5.37;;;2.80;;
76852;SDS011;65825;52.232;10.566;2023-01-09T06:45:23;3.60;;;2.10;;
76852;SDS011;65825;52.232;10.566;2023-01-09T06:47:48;3.67;;;2.35;;
76852;SDS011;65825;52.232;10.566;2023-01-09T06:50:14;3.67;;;2.65;;
76852;SDS011;65825;52.232;10.566;2023-01-09T06:52:39;4.72;;;1.92;;
76852;SDS011;65825;52.232;10.566;2023-01-09T06:55:05;5.53;;;2.60;;
76852;SDS011;65825;52.232;10.566;2023-01-09T06:57:32;3.00;;;1.98;;
76852;SDS011;65825;52.232;10.566;2023-01-09T06:59:57;3.47;;;2.07;;
76852;SDS011;65825;52.232;10.566;2023-01-09T07:02:22;3.27;;;1.97;;
76852;SDS011;65825;52.232;10.566;2023-01-09T07:04:48;2.60;;;1.80;;
76852;SDS011;65825;52.232;10.566;2023-01-09T07:07:13;3.37;;;1.80;;
76852;SDS011;65825;52.232;10.566;2023-01-09T07:09:39;5.32;;;2.15;;
76852;SDS011;65825;52.232;10.566;2023-01-09T07:12:04;4.30;;;1.92;;
76852;SDS011;65825;52.232;10.566;2023-01-09T07:14:30;2.85;;;1.80;;
76852;SDS011;65825;52.232;10.566;2023-01-09T07:16:55;4.78;;;2.03;;
76852;SDS011;65825;52.232;10.566;2023-01-09T07:19:20;3.65;;;2.20;;
76852;SDS011;65825;52.232;10.566;2023-01-09T07:21:46;5.03;;;2.00;;
76852;SDS011;65825;52.232;10.566;2023-01-09T07:24:11;4.25;;;2.10;;
76852;SDS011;65825;52.232;10.566;2023-01-09T07:26:36;2.80;;;1.80;;
76852;SDS011;65825;52.232;10.566;2023-01-09T07:29:02;3.57;;;2.50;;
76852;SDS011;65825;52.232;10.566;2023-01-09T07:31:27;5.35;;;2.38;;
76852;SDS011;65825;52.232;10.566;2023-01-09T07:33:53;4.25;;;1.90;;
76852;SDS011;65825;52.232;10.566;2023-01-09T07:36:18;5.10;;;2.30;;
76852;SDS011;65825;52.232;10.566;2023-01-09T07:38:43;3.43;;;2.30;;
76852;SDS011;65825;52.232;10.566;2023-01-09T07:41:08;3.88;;;2.58;;
76852;SDS011;65825;52.232;10.566;2023-01-09T07:43:35;5.13;;;2.15;;
76852;SDS011;65825;52.232;10.566;2023-01-09T07:46:02;5.90;;;2.63;;
76852;SDS011;65825;52.232;10.566;2023-01-09T07:48:27;7.20;;;3.33;;
76852;SDS011;65825;52.232;10.566;2023-01-09T07:50:52;6.57;;;3.13;;
76852;SDS011;65825;52.232;10.566;2023-01-09T07:53:18;5.60;;;3.07;;
76852;SDS011;65825;52.232;10.566;2023-01-09T07:55:46;5.25;;;2.25;;
76852;SDS011;65825;52.232;10.566;2023-01-09T07:58:11;4.90;;;3.03;;
76852;SDS011;65825;52.232;10.566;2023-01-09T08:00:36;7.68;;;2.97;;
76852;SDS011;65825;52.232;10.566;2023-01-09T08:03:01;4.60;;;2.80;;
76852;SDS011;65825;52.232;10.566;2023-01-09T08:05:27;6.00;;;2.97;;
76852;SDS011;65825;52.232;10.566;2023-01-09T08:07:52;7.83;;;2.87;;
76852;SDS011;65825;52.232;10.566;2023-01-09T08:10:17;5.40;;;2.67;;
76852;SDS011;65825;52.232;10.566;2023-01-09T08:12:43;5.35;;;2.90;;
76852;SDS011;65825;52.232;10.566;2023-01-09T08:15:10;7.60;;;2.67;;
76852;SDS011;65825;52.232;10.566;2023-01-09T08:17:35;8.20;;;2.85;;
76852;SDS011;65825;52.232;10.566;2023-01-09T08:20:01;6.18;;;2.88;;
76852;SDS011;65825;52.232;10.566;2023-01-09T08:22:26;5.10;;;3.00;;
76852;SDS011;65825;52.232;10.566;2023-01-09T08:24:51;5.93;;;2.87;;
76852;SDS011;65825;52.232;10.566;2023-01-09T08:27:17;9.47;;;3.23;;
76852;SDS011;65825;52.232;10.566;2023-01-09T08:29:42;9.82;;;3.35;;
76852;SDS011;65825;52.232;10.566;2023-01-09T08:32:07;9.05;;;3.50;;
76852;SDS011;65825;52.232;10.566;2023-01-09T08:34:33;9.77;;;3.47;;
76852;SDS011;65825;52.232;10.566;2023-01-09T08:36:59;7.90;;;3.58;;
76852;SDS011;65825;52.232;10.566;2023-01-09T08:39:24;7.13;;;3.70;;
76852;SDS011;65825;52.232;10.566;2023-01-09T08:41:50;9.07;;;3.50;;
76852;SDS011;65825;52.232;10.566;2023-01-09T08:44:33;9.55;;;3.65;;
76852;SDS011;65825;52.232;10.566;2023-01-09T08:47:18;11.48;;;3.80;;
76852;SDS011;65825;52.232;10.566;2023-01-09T08:49:46;10.73;;;3.90;;
76852;SDS011;65825;52.232;10.566;2023-01-09T08:52:11;7.90;;;3.30;;
76852;SDS011;65825;52.232;10.566;2023-01-09T08:54:38;7.75;;;3.30;;
76852;SDS011;65825;52.232;10.566;2023-01-09T08:57:04;8.15;;;3.58;;
76852;SDS011;65825;52.232;10.566;2023-01-09T08:59:30;9.10;;;3.60;;
76852;SDS011;65825;52.232;10.566;2023-01-09T09:01:56;7.80;;;3.45;;
76852;SDS011;65825;52.232;10.566;2023-01-09T09:04:22;6.82;;;3.75;;
76852;SDS011;65825;52.232;10.566;2023-01-09T09:06:47;5.60;;;3.05;;
76852;SDS011;65825;52.232;10.566;2023-01-09T09:09:13;9.00;;;3.00;;
76852;SDS011;65825;52.232;10.566;2023-01-09T09:11:39;8.45;;;3.00;;
76852;SDS011;65825;52.232;10.566;2023-01-09T09:14:04;8.32;;;3.20;;
76852;SDS011;65825;52.232;10.566;2023-01-09T09:16:50;6.78;;;3.65;;
76852;SDS011;65825;52.232;10.566;2023-01-09T09:19:16;5.70;;;3.67;;
76852;SDS011;65825;52.232;10.566;2023-01-09T09:21:41;8.50;;;3.92;;
76852;SDS011;65825;52.232;10.566;2023-01-09T09:24:06;5.53;;;3.27;;
76852;SDS011;65825;52.232;10.566;2023-01-09T09:26:32;9.50;;;3.58;;
76852;SDS011;65825;52.232;10.566;2023-01-09T09:28:59;9.55;;;3.00;;
76852;SDS011;65825;52.232;10.566;2023-01-09T09:31:25;5.70;;;3.03;;
76852;SDS011;65825;52.232;10.566;2023-01-09T09:33:50;8.65;;;3.53;;
76852;SDS011;65825;52.232;10.566;2023-01-09T09:36:15;5.97;;;3.03;;
76852;SDS011;65825;52.232;10.566;2023-01-09T09:38:41;4.90;;;2.75;;
76852;SDS011;65825;52.232;10.566;2023-01-09T09:44:10;8.85;;;2.72;;
76852;SDS011;65825;52.232;10.566;2023-01-09T09:53:14;6.55;;;2.00;;
76852;SDS011;65825;52.232;10.566;2023-01-09T09:55:41;4.85;;;2.00;;
76852;SDS011;65825;52.232;10.566;2023-01-09T09:58:11;6.13;;;1.90;;
76852;SDS011;65825;52.232;10.566;2023-01-09T10:00:42;3.30;;;1.92;;
76852;SDS011;65825;52.232;10.566;2023-01-09T10:03:12;4.97;;;1.70;;
76852;SDS011;65825;52.232;10.566;2023-01-09T10:05:56;2.90;;;1.50;;
76852;SDS011;65825;52.232;10.566;2023-01-09T10:11:13;4.88;;;1.65;;
76852;SDS011;65825;52.232;10.566;2023-01-09T10:19:16;5.80;;;1.60;;
76852;SDS011;65825;52.232;10.566;2023-01-09T10:22:00;3.97;;;1.50;;
76852;SDS011;65825;52.232;10.566;2023-01-09T10:24:32;4.47;;;1.50;;
76852;SDS011;65825;52.232;10.566;2023-01-09T10:27:28;5.03;;;1.65;;
76852;SDS011;65825;52.232;10.566;2023-01-09T10:39:17;6.43;;;2.30;;
76852;SDS011;65825;52.232;10.566;2023-01-09T10:44:27;6.07;;;2.20;;
76852;SDS011;65825;52.232;10.566;2023-01-09T10:47:00;7.40;;;2.20;;
76852;SDS011;65825;52.232;10.566;2023-01-09T10:49:28;2.88;;;1.70;;
76852;SDS011;65825;52.232;10.566;2023-01-09T10:52:04;5.32;;;1.60;;
76852;SDS011;65825;52.232;10.566;2023-01-09T10:54:42;4.68;;;1.63;;
76852;SDS011;65825;52.232;10.566;2023-01-09T10:57:24;5.35;;;1.73;;
76852;SDS011;65825;52.232;10.566;2023-01-09T10:59:57;7.30;;;1.65;;
76852;SDS011;65825;52.232;10.566;2023-01-09T11:02:26;5.67;;;1.80;;
76852;SDS011;65825;52.232;10.566;2023-01-09T11:04:55;3.95;;;1.67;;
76852;SDS011;65825;52.232;10.566;2023-01-09T11:07:22;6.07;;;1.60;;
76852;SDS011;65825;52.232;10.566;2023-01-09T11:12:22;2.97;;;1.40;;
76852;SDS011;65825;52.232;10.566;2023-01-09T11:14:50;3.33;;;1.13;;
76852;SDS011;65825;52.232;10.566;2023-01-09T11:17:19;2.03;;;1.10;;
76852;SDS011;65825;52.232;10.566;2023-01-09T11:20:02;3.17;;;1.20;;
76852;SDS011;65825;52.232;10.566;2023-01-09T11:25:09;3.08;;;1.40;;
76852;SDS011;65825;52.232;10.566;2023-01-09T11:27:37;3.00;;;1.27;;
76852;SDS011;65825;52.232;10.566;2023-01-09T11:30:04;2.53;;;1.30;;
76852;SDS011;65825;52.232;10.566;2023-01-09T11:32:37;2.50;;;1.33;;
76852;SDS011;65825;52.232;10.566;2023-01-09T11:35:21;1.57;;;1.00;;
76852;SDS011;65825;52.232;10.566;2023-01-09T11:37:56;2.80;;;1.05;;
76852;SDS011;65825;52.232;10.566;2023-01-09T11:40:26;3.42;;;1.20;;
76852;SDS011;65825;52.232;10.566;2023-01-09T11:43:04;2.20;;;1.27;;
76852;SDS011;65825;52.232;10.566;2023-01-09T11:45:41;1.85;;;1.20;;
76852;SDS011;65825;52.232;10.566;2023-01-09T11:48:16;2.63;;;1.40;;
76852;SDS011;65825;52.232;10.566;2023-01-09T11:50:51;3.85;;;1.20;;
76852;SDS011;65825;52.232;10.566;2023-01-09T11:53:19;2.65;;;1.05;;
76852;SDS011;65825;52.232;10.566;2023-01-09T11:55:45;5.78;;;2.05;;
76852;SDS011;65825;52.232;10.566;2023-01-09T11:58:16;4.35;;;1.80;;
76852;SDS011;65825;52.232;10.566;2023-01-09T12:05:56;3.88;;;1.30;;
76852;SDS011;65825;52.232;10.566;2023-01-09T12:08:32;3.00;;;1.10;;
76852;SDS011;65825;52.232;10.566;2023-01-09T12:11:15;1.50;;;1.00;;
76852;SDS011;65825;52.232;10.566;2023-01-09T12:16:49;4.78;;;1.10;;
76852;SDS011;65825;52.232;10.566;2023-01-09T12:27:07;3.80;;;1.50;;
76852;SDS011;65825;52.232;10.566;2023-01-09T12:30:03;2.25;;;1.30;;
76852;SDS011;65825;52.232;10.566;2023-01-09T12:46:18;2.07;;;0.90;;
76852;SDS011;65825;52.232;10.566;2023-01-09T13:05:46;2.78;;;1.20;;
76852;SDS011;65825;52.232;10.566;2023-01-09T13:10:51;4.65;;;1.35;;
76852;SDS011;65825;52.232;10.566;2023-01-09T13:16:05;9.00;;;2.40;;
76852;SDS011;65825;52.232;10.566;2023-01-09T13:21:23;4.97;;;2.15;;
76852;SDS011;65825;52.232;10.566;2023-01-09T13:28:57;4.22;;;1.83;;
76852;SDS011;65825;52.232;10.566;2023-01-09T13:34:21;2.72;;;1.00;;
76852;SDS011;65825;52.232;10.566;2023-01-09T13:36:50;3.45;;;1.30;;
76852;SDS011;65825;52.232;10.566;2023-01-09T13:42:03;1.10;;;0.80;;
76852;SDS011;65825;52.232;10.566;2023-01-09T13:47:19;2.53;;;1.10;;
76852;SDS011;65825;52.232;10.566;2023-01-09T13:52:32;1.90;;;0.90;;
76852;SDS011;65825;52.232;10.566;2023-01-09T13:57:44;2.53;;;1.30;;
76852;SDS011;65825;52.232;10.566;2023-01-09T14:03:22;5.82;;;1.20;;
76852;SDS011;65825;52.232;10.566;2023-01-09T14:08:18;2.80;;;1.40;;
76852;SDS011;65825;52.232;10.566;2023-01-09T14:10:46;3.17;;;1.30;;
76852;SDS011;65825;52.232;10.566;2023-01-09T14:13:19;2.28;;;1.25;;
76852;SDS011;65825;52.232;10.566;2023-01-09T14:15:47;4.18;;;1.58;;
76852;SDS011;65825;52.232;10.566;2023-01-09T14:18:17;2.92;;;1.60;;
76852;SDS011;65825;52.232;10.566;2023-01-09T14:20:57;4.85;;;2.53;;
76852;SDS011;65825;52.232;10.566;2023-01-09T14:23:28;6.00;;;1.75;;
76852;SDS011;65825;52.232;10.566;2023-01-09T14:25:57;2.17;;;1.20;;
76852;SDS011;65825;52.232;10.566;2023-01-09T14:28:24;1.65;;;1.10;;
76852;SDS011;65825;52.232;10.566;2023-01-09T14:46:51;4.32;;;2.67;;
76852;SDS011;65825;52.232;10.566;2023-01-09T14:49:40;4.53;;;1.60;;
76852;SDS011;65825;52.232;10.566;2023-01-09T14:52:52;3.65;;;1.60;;
76852;SDS011;65825;52.232;10.566;2023-01-09T14:55:02;9.15;;;3.95;;
76852;SDS011;65825;52.232;10.566;2023-01-09T14:57:32;9.85;;;4.10;;
76852;SDS011;65825;52.232;10.566;2023-01-09T14:59:59;9.10;;;3.63;;
76852;SDS011;65825;52.232;10.566;2023-01-09T15:02:27;4.80;;;2.17;;
76852;SDS011;65825;52.232;10.566;2023-01-09T15:05:01;3.67;;;1.63;;
76852;SDS011;65825;52.232;10.566;2023-01-09T15:07:30;2.42;;;1.30;;
76852;SDS011;65825;52.232;10.566;2023-01-09T15:10:04;2.17;;;1.10;;
76852;SDS011;65825;52.232;10.566;2023-01-09T15:12:30;3.83;;;1.33;;
76852;SDS011;65825;52.232;10.566;2023-01-09T15:14:57;3.97;;;1.45;;
76852;SDS011;65825;52.232;10.566;2023-01-09T15:17:26;2.47;;;1.33;;
76852;SDS011;65825;52.232;10.566;2023-01-09T15:19:55;4.20;;;1.52;;
76852;SDS011;65825;52.232;10.566;2023-01-09T15:22:32;4.05;;;1.65;;
76852;SDS011;65825;52.232;10.566;2023-01-09T15:25:14;2.65;;;1.27;;
76852;SDS011;65825;52.232;10.566;2023-01-09T15:27:50;3.83;;;1.90;;
76852;SDS011;65825;52.232;10.566;2023-01-09T15:30:21;4.45;;;1.88;;
76852;SDS011;65825;52.232;10.566;2023-01-09T15:32:59;1.92;;;1.10;;
76852;SDS011;65825;52.232;10.566;2023-01-09T15:35:27;2.00;;;1.25;;
76852;SDS011;65825;52.232;10.566;2023-01-09T15:37:53;4.10;;;1.10;;
76852;SDS011;65825;52.232;10.566;2023-01-09T15:40:21;1.60;;;0.90;;
76852;SDS011;65825;52.232;10.566;2023-01-09T15:42:51;2.00;;;1.02;;
76852;SDS011;65825;52.232;10.566;2023-01-09T15:47:50;1.15;;;0.90;;
76852;SDS011;65825;52.232;10.566;2023-01-09T15:50:16;2.80;;;1.10;;
76852;SDS011;65825;52.232;10.566;2023-01-09T15:52:44;2.17;;;1.10;;
76852;SDS011;65825;52.232;10.566;2023-01-09T15:55:23;12.75;;;5.10;;
76852;SDS011;65825;52.232;10.566;2023-01-09T15:57:52;4.28;;;1.90;;
76852;SDS011;65825;52.232;10.566;2023-01-09T16:00:34;2.85;;;1.83;;
76852;SDS011;65825;52.232;10.566;2023-01-09T16:03:07;3.88;;;2.20;;
76852;SDS011;65825;52.232;10.566;2023-01-09T16:05:42;2.92;;;1.67;;
76852;SDS011;65825;52.232;10.566;2023-01-09T16:11:25;3.65;;;1.50;;
76852;SDS011;65825;52.232;10.566;2023-01-09T16:14:18;4.72;;;2.28;;
76852;SDS011;65825;52.232;10.566;2023-01-09T16:17:05;5.20;;;1.67;;
76852;SDS011;65825;52.232;10.566;2023-01-09T16:19:42;13.02;;;6.70;;
76852;SDS011;65825;52.232;10.566;2023-01-09T16:22:20;12.23;;;6.30;;
76852;SDS011;65825;52.232;10.566;2023-01-09T16:24:48;9.20;;;4.05;;
76852;SDS011;65825;52.232;10.566;2023-01-09T16:27:21;10.30;;;5.35;;
76852;SDS011;65825;52.232;10.566;2023-01-09T16:30:37;10.23;;;6.07;;
76852;SDS011;65825;52.232;10.566;2023-01-09T16:32:50;7.65;;;4.97;;
76852;SDS011;65825;52.232;10.566;2023-01-09T16:35:17;7.82;;;3.92;;
76852;SDS011;65825;52.232;10.566;2023-01-09T16:37:44;6.80;;;3.47;;
76852;SDS011;65825;52.232;10.566;2023-01-09T16:42:38;4.43;;;2.50;;
76852;SDS011;65825;52.232;10.566;2023-01-09T16:45:23;14.05;;;6.03;;
76852;SDS011;65825;52.232;10.566;2023-01-09T16:47:49;7.78;;;3.88;;
76852;SDS011;65825;52.232;10.566;2023-01-09T16:50:15;5.60;;;2.78;;
76852;SDS011;65825;52.232;10.566;2023-01-09T16:52:40;3.53;;;1.58;;
76852;SDS011;65825;52.232;10.566;2023-01-09T16:55:05;4.77;;;2.10;;
76852;SDS011;65825;52.232;10.566;2023-01-09T16:57:31;7.63;;;3.03;;
76852;SDS011;65825;52.232;10.566;2023-01-09T16:59:59;6.57;;;3.70;;
76852;SDS011;65825;52.232;10.566;2023-01-09T17:02:25;7.88;;;4.50;;
76852;SDS011;65825;52.232;10.566;2023-01-09T17:04:50;7.65;;;4.20;;
76852;SDS011;65825;52.232;10.566;2023-01-09T17:07:15;10.45;;;5.05;;
76852;SDS011;65825;52.232;10.566;2023-01-09T17:09:49;9.50;;;3.33;;
76852;SDS011;65825;52.232;10.566;2023-01-09T17:12:18;5.97;;;3.23;;
76852;SDS011;65825;52.232;10.566;2023-01-09T17:14:45;7.63;;;3.17;;
76852;SDS011;65825;52.232;10.566;2023-01-09T17:17:11;7.80;;;2.58;;
76852;SDS011;65825;52.232;10.566;2023-01-09T17:19:37;8.43;;;3.10;;
76852;SDS011;65825;52.232;10.566;2023-01-09T17:22:03;7.25;;;2.40;;
76852;SDS011;65825;52.232;10.566;2023-01-09T17:24:28;4.18;;;1.98;;
76852;SDS011;65825;52.232;10.566;2023-01-09T17:27:12;3.80;;;2.00;;
76852;SDS011;65825;52.232;10.566;2023-01-09T17:29:56;6.90;;;2.03;;
76852;SDS011;65825;52.232;10.566;2023-01-09T17:32:21;5.73;;;2.67;;